sensor_id;sensor_type;location;lat;lon;timestamp;P1;durP1;ratioP1;P2;durP2;ratioP2
17197;SDS011;8715;51.010;6.812;2024-03-02T00:01:41;818.28;;;775.28;;
17197;SDS011;8715;51.010;6.812;2024-03-02T00:04:26;817.33;;;774.63;;
17197;SDS011;8715;51.010;6.812;2024-03-02T00:07:13;822.20;;;778.65;;
17197;SDS011;8715;51.010;6.812;2024-03-02T00:09:58;825.33;;;781.70;;
17197;SDS011;8715;51.010;6.812;2024-03-02T00:12:43;807.90;;;765.38;;
17197;SDS011;8715;51.010;6.812;2024-03-02T00:15:37;814.05;;;771.28;;
17197;SDS011;8715;51.010;6.812;2024-03-02T00:18:25;815.65;;;772.65;;
17197;SDS011;8715;51.010;6.812;2024-03-02T00:21:10;822.88;;;779.53;;
17197;SDS011;8715;51.010;6.812;2024-03-02T00:23:58;819.33;;;776.25;;
17197;SDS011;8715;51.010;6.812;2024-03-02T00:26:44;815.25;;;772.53;;
17197;SDS011;8715;51.010;6.812;2024-03-02T00:29:29;812.42;;;769.88;;
17197;SDS011;8715;51.010;6.812;2024-03-02T00:32:14;810.28;;;767.97;;
17197;SDS011;8715;51.010;6.812;2024-03-02T00:35:00;811.80;;;769.72;;
17197;SDS011;8715;51.010;6.812;2024-03-02T00:37:45;808.00;;;765.97;;
17197;SDS011;8715;51.010;6.812;2024-03-02T00:40:31;813.05;;;770.15;;
17197;SDS011;8715;51.010;6.812;2024-03-02T00:46:27;812.25;;;769.50;;
17197;SDS011;8715;51.010;6.812;2024-03-02T00:49:17;813.45;;;770.80;;
17197;SDS011;8715;51.010;6.812;2024-03-02T00:52:04;816.00;;;773.10;;
17197;SDS011;8715;51.010;6.812;2024-03-02T00:54:50;822.30;;;778.72;;
17197;SDS011;8715;51.010;6.812;2024-03-02T00:57:36;810.22;;;767.72;;
17197;SDS011;8715;51.010;6.812;2024-03-02T01:00:22;827.40;;;783.17;;
17197;SDS011;8715;51.010;6.812;2024-03-02T01:03:07;816.95;;;773.88;;
17197;SDS011;8715;51.010;6.812;2024-03-02T01:05:53;812.42;;;769.20;;
17197;SDS011;8715;51.010;6.812;2024-03-02T01:08:38;812.10;;;769.15;;
17197;SDS011;8715;51.010;6.812;2024-03-02T01:11:24;816.38;;;772.97;;
17197;SDS011;8715;51.010;6.812;2024-03-02T01:14:10;820.38;;;776.75;;
17197;SDS011;8715;51.010;6.812;2024-03-02T01:16:55;824.33;;;780.58;;
17197;SDS011;8715;51.010;6.812;2024-03-02T01:19:41;819.45;;;776.17;;
17197;SDS011;8715;51.010;6.812;2024-03-02T01:22:26;810.72;;;767.90;;
17197;SDS011;8715;51.010;6.812;2024-03-02T01:25:11;816.75;;;773.95;;
17197;SDS011;8715;51.010;6.812;2024-03-02T01:27:57;819.13;;;775.95;;
17197;SDS011;8715;51.010;6.812;2024-03-02T01:30:44;816.20;;;773.22;;
17197;SDS011;8715;51.010;6.812;2024-03-02T01:33:29;809.47;;;767.08;;
17197;SDS011;8715;51.010;6.812;2024-03-02T01:36:14;811.63;;;769.33;;
17197;SDS011;8715;51.010;6.812;2024-03-02T01:38:59;816.40;;;773.47;;
17197;SDS011;8715;51.010;6.812;2024-03-02T01:41:45;815.58;;;772.97;;
17197;SDS011;8715;51.010;6.812;2024-03-02T01:44:29;823.08;;;779.70;;
17197;SDS011;8715;51.010;6.812;2024-03-02T01:47:16;824.97;;;781.28;;
17197;SDS011;8715;51.010;6.812;2024-03-02T01:50:01;822.65;;;778.78;;
17197;SDS011;8715;51.010;6.812;2024-03-02T01:52:46;813.85;;;771.03;;
17197;SDS011;8715;51.010;6.812;2024-03-02T01:55:31;816.80;;;773.58;;
17197;SDS011;8715;51.010;6.812;2024-03-02T01:58:18;814.33;;;771.08;;
17197;SDS011;8715;51.010;6.812;2024-03-02T02:01:03;819.70;;;776.08;;
17197;SDS011;8715;51.010;6.812;2024-03-02T02:03:50;826.58;;;782.38;;
17197;SDS011;8715;51.010;6.812;2024-03-02T02:06:35;821.17;;;777.53;;
17197;SDS011;8715;51.010;6.812;2024-03-02T02:09:20;824.38;;;780.28;;
17197;SDS011;8715;51.010;6.812;2024-03-02T02:12:05;820.95;;;777.50;;
17197;SDS011;8715;51.010;6.812;2024-03-02T02:14:51;820.28;;;776.72;;
17197;SDS011;8715;51.010;6.812;2024-03-02T02:17:36;824.80;;;781.20;;
17197;SDS011;8715;51.010;6.812;2024-03-02T02:20:22;809.72;;;767.28;;
17197;SDS011;8715;51.010;6.812;2024-03-02T02:23:09;819.33;;;776.15;;
17197;SDS011;8715;51.010;6.812;2024-03-02T02:25:54;820.63;;;777.65;;
17197;SDS011;8715;51.010;6.812;2024-03-02T02:28:39;816.08;;;772.63;;
17197;SDS011;8715;51.010;6.812;2024-03-02T02:31:36;812.58;;;769.92;;
17197;SDS011;8715;51.010;6.812;2024-03-02T02:34:21;823.83;;;780.20;;
17197;SDS011;8715;51.010;6.812;2024-03-02T02:37:05;821.30;;;777.88;;
17197;SDS011;8715;51.010;6.812;2024-03-02T02:39:52;818.80;;;775.33;;
17197;SDS011;8715;51.010;6.812;2024-03-02T02:42:37;826.75;;;782.63;;
17197;SDS011;8715;51.010;6.812;2024-03-02T02:45:22;819.58;;;776.45;;
17197;SDS011;8715;51.010;6.812;2024-03-02T02:48:07;822.92;;;778.90;;
17197;SDS011;8715;51.010;6.812;2024-03-02T02:50:52;821.38;;;777.50;;
17197;SDS011;8715;51.010;6.812;2024-03-02T02:53:37;810.08;;;767.80;;
17197;SDS011;8715;51.010;6.812;2024-03-02T02:56:25;818.40;;;774.90;;
17197;SDS011;8715;51.010;6.812;2024-03-02T02:59:10;815.22;;;772.30;;
17197;SDS011;8715;51.010;6.812;2024-03-02T03:01:55;824.42;;;780.60;;
17197;SDS011;8715;51.010;6.812;2024-03-02T03:04:40;820.92;;;777.75;;
17197;SDS011;8715;51.010;6.812;2024-03-02T03:07:25;814.17;;;771.50;;
17197;SDS011;8715;51.010;6.812;2024-03-02T03:10:11;811.75;;;769.08;;
17197;SDS011;8715;51.010;6.812;2024-03-02T03:12:57;807.53;;;765.08;;
17197;SDS011;8715;51.010;6.812;2024-03-02T03:15:43;820.75;;;777.45;;
17197;SDS011;8715;51.010;6.812;2024-03-02T03:18:28;809.67;;;767.05;;
17197;SDS011;8715;51.010;6.812;2024-03-02T03:21:13;809.22;;;766.72;;
17197;SDS011;8715;51.010;6.812;2024-03-02T03:23:58;811.78;;;769.22;;
17197;SDS011;8715;51.010;6.812;2024-03-02T03:26:43;814.97;;;772.40;;
17197;SDS011;8715;51.010;6.812;2024-03-02T03:29:30;816.03;;;773.15;;
17197;SDS011;8715;51.010;6.812;2024-03-02T03:32:15;811.90;;;769.28;;
17197;SDS011;8715;51.010;6.812;2024-03-02T03:35:00;820.17;;;776.67;;
17197;SDS011;8715;51.010;6.812;2024-03-02T03:37:45;815.42;;;772.63;;
17197;SDS011;8715;51.010;6.812;2024-03-02T03:40:30;808.78;;;766.53;;
17197;SDS011;8715;51.010;6.812;2024-03-02T03:43:16;821.10;;;777.97;;
17197;SDS011;8715;51.010;6.812;2024-03-02T03:46:02;818.83;;;775.70;;
17197;SDS011;8715;51.010;6.812;2024-03-02T03:48:47;818.63;;;775.65;;
17197;SDS011;8715;51.010;6.812;2024-03-02T03:51:32;814.60;;;771.97;;
17197;SDS011;8715;51.010;6.812;2024-03-02T03:54:17;807.83;;;765.75;;
17197;SDS011;8715;51.010;6.812;2024-03-02T03:57:02;816.53;;;773.92;;
17197;SDS011;8715;51.010;6.812;2024-03-02T03:59:47;815.00;;;772.42;;
17197;SDS011;8715;51.010;6.812;2024-03-02T04:02:34;806.17;;;764.30;;
17197;SDS011;8715;51.010;6.812;2024-03-02T04:05:19;800.63;;;759.58;;
17197;SDS011;8715;51.010;6.812;2024-03-02T04:08:04;806.38;;;764.42;;
17197;SDS011;8715;51.010;6.812;2024-03-02T04:10:49;812.17;;;770.20;;
17197;SDS011;8715;51.010;6.812;2024-03-02T04:13:34;809.60;;;767.17;;
17197;SDS011;8715;51.010;6.812;2024-03-02T04:16:19;807.00;;;765.20;;
17197;SDS011;8715;51.010;6.812;2024-03-02T04:19:05;806.50;;;765.03;;
17197;SDS011;8715;51.010;6.812;2024-03-02T04:21:50;812.10;;;770.00;;
17197;SDS011;8715;51.010;6.812;2024-03-02T04:24:35;806.22;;;765.22;;
17197;SDS011;8715;51.010;6.812;2024-03-02T04:27:21;804.05;;;762.90;;
17197;SDS011;8715;51.010;6.812;2024-03-02T04:30:06;808.22;;;766.65;;
17197;SDS011;8715;51.010;6.812;2024-03-02T04:32:51;801.78;;;761.33;;
17197;SDS011;8715;51.010;6.812;2024-03-02T04:35:38;803.40;;;762.78;;
17197;SDS011;8715;51.010;6.812;2024-03-02T04:38:22;798.05;;;757.47;;
17197;SDS011;8715;51.010;6.812;2024-03-02T04:41:08;811.78;;;770.28;;
17197;SDS011;8715;51.010;6.812;2024-03-02T04:43:53;803.97;;;763.28;;
17197;SDS011;8715;51.010;6.812;2024-03-02T04:46:38;804.28;;;763.72;;
17197;SDS011;8715;51.010;6.812;2024-03-02T04:49:23;805.63;;;765.17;;
17197;SDS011;8715;51.010;6.812;2024-03-02T04:52:10;803.70;;;763.03;;
17197;SDS011;8715;51.010;6.812;2024-03-02T04:54:55;801.83;;;761.55;;
17197;SDS011;8715;51.010;6.812;2024-03-02T04:58:03;803.60;;;763.50;;
17197;SDS011;8715;51.010;6.812;2024-03-02T05:00:48;799.97;;;759.78;;
17197;SDS011;8715;51.010;6.812;2024-03-02T05:03:34;800.05;;;760.25;;
17197;SDS011;8715;51.010;6.812;2024-03-02T05:06:19;796.05;;;756.00;;
17197;SDS011;8715;51.010;6.812;2024-03-02T05:09:05;795.80;;;756.08;;
17197;SDS011;8715;51.010;6.812;2024-03-02T05:11:50;799.33;;;759.35;;
17197;SDS011;8715;51.010;6.812;2024-03-02T05:14:59;788.30;;;749.55;;
17197;SDS011;8715;51.010;6.812;2024-03-02T05:17:43;796.85;;;757.38;;
17197;SDS011;8715;51.010;6.812;2024-03-02T05:20:28;800.38;;;760.58;;
17197;SDS011;8715;51.010;6.812;2024-03-02T05:23:14;800.63;;;760.33;;
17197;SDS011;8715;51.010;6.812;2024-03-02T05:26:00;793.75;;;754.03;;
17197;SDS011;8715;51.010;6.812;2024-03-02T05:28:46;793.65;;;754.40;;
17197;SDS011;8715;51.010;6.812;2024-03-02T05:31:31;788.35;;;749.10;;
17197;SDS011;8715;51.010;6.812;2024-03-02T05:34:16;796.10;;;756.63;;
17197;SDS011;8715;51.010;6.812;2024-03-02T05:37:02;792.60;;;752.95;;
17197;SDS011;8715;51.010;6.812;2024-03-02T05:39:47;801.92;;;761.95;;
17197;SDS011;8715;51.010;6.812;2024-03-02T05:42:33;791.20;;;751.83;;
17197;SDS011;8715;51.010;6.812;2024-03-02T05:45:18;802.78;;;762.78;;
17197;SDS011;8715;51.010;6.812;2024-03-02T05:48:04;794.63;;;755.25;;
17197;SDS011;8715;51.010;6.812;2024-03-02T05:50:49;802.53;;;762.45;;
17197;SDS011;8715;51.010;6.812;2024-03-02T05:53:34;791.03;;;751.78;;
17197;SDS011;8715;51.010;6.812;2024-03-02T05:56:21;796.33;;;756.88;;
17197;SDS011;8715;51.010;6.812;2024-03-02T05:59:08;807.72;;;767.15;;
17197;SDS011;8715;51.010;6.812;2024-03-02T06:01:56;799.58;;;759.65;;
17197;SDS011;8715;51.010;6.812;2024-03-02T06:04:41;788.35;;;749.45;;
17197;SDS011;8715;51.010;6.812;2024-03-02T06:07:26;791.97;;;752.95;;
17197;SDS011;8715;51.010;6.812;2024-03-02T06:10:11;793.63;;;754.28;;
17197;SDS011;8715;51.010;6.812;2024-03-02T06:12:56;798.90;;;759.03;;
17197;SDS011;8715;51.010;6.812;2024-03-02T06:15:44;800.08;;;760.17;;
17197;SDS011;8715;51.010;6.812;2024-03-02T06:18:29;804.25;;;763.95;;
17197;SDS011;8715;51.010;6.812;2024-03-02T06:21:16;790.78;;;751.33;;
17197;SDS011;8715;51.010;6.812;2024-03-02T06:24:02;793.33;;;753.92;;
17197;SDS011;8715;51.010;6.812;2024-03-02T06:26:47;789.50;;;750.33;;
17197;SDS011;8715;51.010;6.812;2024-03-02T06:29:32;793.20;;;753.60;;
17197;SDS011;8715;51.010;6.812;2024-03-02T06:32:18;805.75;;;765.15;;
17197;SDS011;8715;51.010;6.812;2024-03-02T06:35:04;797.72;;;757.38;;
17197;SDS011;8715;51.010;6.812;2024-03-02T06:37:51;791.92;;;752.15;;
17197;SDS011;8715;51.010;6.812;2024-03-02T06:40:38;805.17;;;764.35;;
17197;SDS011;8715;51.010;6.812;2024-03-02T06:43:24;805.10;;;764.42;;
17197;SDS011;8715;51.010;6.812;2024-03-02T06:46:09;799.67;;;759.42;;
17197;SDS011;8715;51.010;6.812;2024-03-02T06:48:59;798.70;;;758.42;;
17197;SDS011;8715;51.010;6.812;2024-03-02T06:51:46;801.35;;;760.92;;
17197;SDS011;8715;51.010;6.812;2024-03-02T06:54:31;806.88;;;765.80;;
17197;SDS011;8715;51.010;6.812;2024-03-02T06:57:16;807.45;;;766.13;;
17197;SDS011;8715;51.010;6.812;2024-03-02T07:00:01;800.28;;;759.50;;
17197;SDS011;8715;51.010;6.812;2024-03-02T07:02:48;809.47;;;767.42;;
17197;SDS011;8715;51.010;6.812;2024-03-02T07:05:35;807.15;;;765.55;;
17197;SDS011;8715;51.010;6.812;2024-03-02T07:08:20;812.30;;;770.15;;
17197;SDS011;8715;51.010;6.812;2024-03-02T07:11:05;814.10;;;771.58;;
17197;SDS011;8715;51.010;6.812;2024-03-02T07:13:50;818.05;;;775.03;;
17197;SDS011;8715;51.010;6.812;2024-03-02T07:16:37;822.50;;;778.90;;
17197;SDS011;8715;51.010;6.812;2024-03-02T07:19:23;812.08;;;769.00;;
17197;SDS011;8715;51.010;6.812;2024-03-02T07:22:10;823.75;;;779.97;;
17197;SDS011;8715;51.010;6.812;2024-03-02T07:24:55;811.10;;;768.25;;
17197;SDS011;8715;51.010;6.812;2024-03-02T07:27:40;823.55;;;779.65;;
17197;SDS011;8715;51.010;6.812;2024-03-02T07:30:25;818.47;;;774.92;;
17197;SDS011;8715;51.010;6.812;2024-03-02T07:33:10;820.45;;;776.60;;
17197;SDS011;8715;51.010;6.812;2024-03-02T07:35:55;818.03;;;774.17;;
17197;SDS011;8715;51.010;6.812;2024-03-02T07:38:42;824.83;;;780.53;;
17197;SDS011;8715;51.010;6.812;2024-03-02T07:41:28;827.55;;;782.78;;
17197;SDS011;8715;51.010;6.812;2024-03-02T07:44:13;820.38;;;776.03;;
17197;SDS011;8715;51.010;6.812;2024-03-02T07:46:58;824.85;;;780.33;;
17197;SDS011;8715;51.010;6.812;2024-03-02T07:49:44;822.63;;;777.95;;
17197;SDS011;8715;51.010;6.812;2024-03-02T07:52:29;823.78;;;778.75;;
17197;SDS011;8715;51.010;6.812;2024-03-02T07:55:16;829.67;;;784.22;;
17197;SDS011;8715;51.010;6.812;2024-03-02T07:58:01;832.50;;;786.47;;
17197;SDS011;8715;51.010;6.812;2024-03-02T08:00:46;834.50;;;788.72;;
17197;SDS011;8715;51.010;6.812;2024-03-02T08:03:31;828.00;;;782.63;;
17197;SDS011;8715;51.010;6.812;2024-03-02T08:06:18;835.47;;;789.45;;
17197;SDS011;8715;51.010;6.812;2024-03-02T08:09:04;832.33;;;786.00;;
17197;SDS011;8715;51.010;6.812;2024-03-02T08:11:55;832.33;;;786.20;;
17197;SDS011;8715;51.010;6.812;2024-03-02T08:14:40;838.85;;;791.85;;
17197;SDS011;8715;51.010;6.812;2024-03-02T08:17:25;834.75;;;788.45;;
17197;SDS011;8715;51.010;6.812;2024-03-02T08:20:10;836.88;;;789.83;;
17197;SDS011;8715;51.010;6.812;2024-03-02T08:22:55;844.08;;;796.53;;
17197;SDS011;8715;51.010;6.812;2024-03-02T08:25:41;835.10;;;788.15;;
17197;SDS011;8715;51.010;6.812;2024-03-02T08:28:28;837.72;;;790.28;;
17197;SDS011;8715;51.010;6.812;2024-03-02T08:31:13;844.00;;;796.10;;
17197;SDS011;8715;51.010;6.812;2024-03-02T08:33:58;835.55;;;788.67;;
17197;SDS011;8715;51.010;6.812;2024-03-02T08:36:43;839.30;;;792.03;;
17197;SDS011;8715;51.010;6.812;2024-03-02T08:39:28;845.35;;;797.17;;
17197;SDS011;8715;51.010;6.812;2024-03-02T08:42:13;842.75;;;794.90;;
17197;SDS011;8715;51.010;6.812;2024-03-02T08:44:59;839.53;;;792.08;;
17197;SDS011;8715;51.010;6.812;2024-03-02T08:47:44;841.78;;;793.90;;
17197;SDS011;8715;51.010;6.812;2024-03-02T08:50:29;836.38;;;789.40;;
17197;SDS011;8715;51.010;6.812;2024-03-02T08:53:14;841.42;;;793.38;;
17197;SDS011;8715;51.010;6.812;2024-03-02T08:56:02;840.50;;;792.78;;
17197;SDS011;8715;51.010;6.812;2024-03-02T08:58:49;837.67;;;789.88;;
17197;SDS011;8715;51.010;6.812;2024-03-02T09:01:35;847.78;;;799.15;;
17197;SDS011;8715;51.010;6.812;2024-03-02T09:04:25;850.88;;;801.47;;
17197;SDS011;8715;51.010;6.812;2024-03-02T09:07:10;842.83;;;794.20;;
17197;SDS011;8715;51.010;6.812;2024-03-02T09:09:55;854.83;;;804.55;;
17197;SDS011;8715;51.010;6.812;2024-03-02T09:12:40;852.72;;;802.55;;
17197;SDS011;8715;51.010;6.812;2024-03-02T09:15:25;865.35;;;813.45;;
17197;SDS011;8715;51.010;6.812;2024-03-02T09:18:12;862.33;;;810.75;;
17197;SDS011;8715;51.010;6.812;2024-03-02T09:20:57;860.97;;;808.92;;
17197;SDS011;8715;51.010;6.812;2024-03-02T09:23:42;861.63;;;809.85;;
17197;SDS011;8715;51.010;6.812;2024-03-02T09:26:29;866.08;;;813.60;;
17197;SDS011;8715;51.010;6.812;2024-03-02T09:29:14;860.63;;;808.67;;
17197;SDS011;8715;51.010;6.812;2024-03-02T09:31:59;862.90;;;810.85;;
17197;SDS011;8715;51.010;6.812;2024-03-02T09:34:46;864.42;;;812.17;;
17197;SDS011;8715;51.010;6.812;2024-03-02T09:37:32;863.47;;;810.75;;
17197;SDS011;8715;51.010;6.812;2024-03-02T09:40:17;861.25;;;809.08;;
17197;SDS011;8715;51.010;6.812;2024-03-02T09:43:06;866.75;;;813.70;;
17197;SDS011;8715;51.010;6.812;2024-03-02T09:45:52;867.42;;;814.15;;
17197;SDS011;8715;51.010;6.812;2024-03-02T09:48:37;860.42;;;808.00;;
17197;SDS011;8715;51.010;6.812;2024-03-02T09:51:24;865.28;;;812.53;;
17197;SDS011;8715;51.010;6.812;2024-03-02T09:54:09;861.53;;;809.13;;
17197;SDS011;8715;51.010;6.812;2024-03-02T09:56:54;859.20;;;806.72;;
17197;SDS011;8715;51.010;6.812;2024-03-02T09:59:39;860.63;;;808.35;;
17197;SDS011;8715;51.010;6.812;2024-03-02T10:02:24;868.28;;;814.90;;
17197;SDS011;8715;51.010;6.812;2024-03-02T10:05:09;861.10;;;808.28;;
17197;SDS011;8715;51.010;6.812;2024-03-02T10:08:00;866.38;;;813.00;;
17197;SDS011;8715;51.010;6.812;2024-03-02T10:10:46;865.47;;;812.13;;
17197;SDS011;8715;51.010;6.812;2024-03-02T10:13:31;871.28;;;817.35;;
17197;SDS011;8715;51.010;6.812;2024-03-02T10:16:16;866.78;;;813.05;;
17197;SDS011;8715;51.010;6.812;2024-03-02T10:19:17;867.63;;;813.92;;
17197;SDS011;8715;51.010;6.812;2024-03-02T10:22:03;869.55;;;815.28;;
17197;SDS011;8715;51.010;6.812;2024-03-02T10:24:51;868.30;;;814.33;;
17197;SDS011;8715;51.010;6.812;2024-03-02T10:27:36;870.72;;;816.13;;
17197;SDS011;8715;51.010;6.812;2024-03-02T10:30:21;877.00;;;821.53;;
17197;SDS011;8715;51.010;6.812;2024-03-02T10:33:06;866.17;;;811.13;;
17197;SDS011;8715;51.010;6.812;2024-03-02T10:35:51;874.63;;;818.97;;
17197;SDS011;8715;51.010;6.812;2024-03-02T10:38:36;875.42;;;819.55;;
17197;SDS011;8715;51.010;6.812;2024-03-02T10:41:23;874.15;;;818.13;;
17197;SDS011;8715;51.010;6.812;2024-03-02T10:44:09;876.10;;;819.88;;
17197;SDS011;8715;51.010;6.812;2024-03-02T10:46:54;873.90;;;818.10;;
17197;SDS011;8715;51.010;6.812;2024-03-02T10:49:40;883.17;;;826.85;;
17197;SDS011;8715;51.010;6.812;2024-03-02T10:52:26;876.45;;;820.28;;
17197;SDS011;8715;51.010;6.812;2024-03-02T10:55:12;872.88;;;817.03;;
17197;SDS011;8715;51.010;6.812;2024-03-02T10:57:59;881.67;;;825.08;;
17197;SDS011;8715;51.010;6.812;2024-03-02T11:00:46;875.97;;;819.85;;
17197;SDS011;8715;51.010;6.812;2024-03-02T11:03:33;881.55;;;824.70;;
17197;SDS011;8715;51.010;6.812;2024-03-02T11:06:18;877.20;;;820.88;;
17197;SDS011;8715;51.010;6.812;2024-03-02T11:09:05;876.13;;;819.78;;
17197;SDS011;8715;51.010;6.812;2024-03-02T11:11:54;879.65;;;822.70;;
17197;SDS011;8715;51.010;6.812;2024-03-02T11:14:42;877.00;;;820.58;;
17197;SDS011;8715;51.010;6.812;2024-03-02T11:17:27;882.30;;;825.22;;
17197;SDS011;8715;51.010;6.812;2024-03-02T11:20:13;876.20;;;819.28;;
17197;SDS011;8715;51.010;6.812;2024-03-02T11:23:02;887.45;;;829.70;;
17197;SDS011;8715;51.010;6.812;2024-03-02T11:25:48;885.58;;;827.88;;
17197;SDS011;8715;51.010;6.812;2024-03-02T11:28:34;885.30;;;827.70;;
17197;SDS011;8715;51.010;6.812;2024-03-02T11:31:21;882.97;;;825.33;;
17197;SDS011;8715;51.010;6.812;2024-03-02T11:34:16;890.20;;;831.15;;
17197;SDS011;8715;51.010;6.812;2024-03-02T11:37:02;883.15;;;825.05;;
17197;SDS011;8715;51.010;6.812;2024-03-02T11:39:49;882.60;;;825.03;;
17197;SDS011;8715;51.010;6.812;2024-03-02T11:42:34;880.85;;;823.08;;
17197;SDS011;8715;51.010;6.812;2024-03-02T11:45:22;886.30;;;827.97;;
17197;SDS011;8715;51.010;6.812;2024-03-02T11:48:08;883.90;;;825.88;;
17197;SDS011;8715;51.010;6.812;2024-03-02T11:50:57;887.53;;;829.00;;
17197;SDS011;8715;51.010;6.812;2024-03-02T11:53:42;887.00;;;828.95;;
17197;SDS011;8715;51.010;6.812;2024-03-02T11:56:30;889.08;;;830.40;;
17197;SDS011;8715;51.010;6.812;2024-03-02T11:59:16;882.25;;;824.33;;
17197;SDS011;8715;51.010;6.812;2024-03-02T12:02:01;890.47;;;831.97;;
17197;SDS011;8715;51.010;6.812;2024-03-02T12:04:48;885.30;;;827.45;;
17197;SDS011;8715;51.010;6.812;2024-03-02T12:07:33;886.03;;;828.08;;
17197;SDS011;8715;51.010;6.812;2024-03-02T12:10:19;880.88;;;823.25;;
17197;SDS011;8715;51.010;6.812;2024-03-02T12:13:04;881.95;;;824.08;;
17197;SDS011;8715;51.010;6.812;2024-03-02T12:15:52;888.00;;;829.42;;
17197;SDS011;8715;51.010;6.812;2024-03-02T12:18:37;881.05;;;823.17;;
17197;SDS011;8715;51.010;6.812;2024-03-02T12:21:24;884.42;;;826.13;;
17197;SDS011;8715;51.010;6.812;2024-03-02T12:24:10;884.60;;;826.03;;
17197;SDS011;8715;51.010;6.812;2024-03-02T12:26:55;887.65;;;828.92;;
17197;SDS011;8715;51.010;6.812;2024-03-02T12:29:40;888.90;;;829.85;;
17197;SDS011;8715;51.010;6.812;2024-03-02T12:32:26;891.95;;;832.47;;
17197;SDS011;8715;51.010;6.812;2024-03-02T12:35:11;888.00;;;828.58;;
17197;SDS011;8715;51.010;6.812;2024-03-02T12:38:00;891.95;;;832.28;;
17197;SDS011;8715;51.010;6.812;2024-03-02T12:40:47;887.42;;;828.28;;
17197;SDS011;8715;51.010;6.812;2024-03-02T12:43:32;890.05;;;830.33;;
17197;SDS011;8715;51.010;6.812;2024-03-02T12:46:17;888.65;;;829.10;;
17197;SDS011;8715;51.010;6.812;2024-03-02T12:49:07;888.85;;;829.28;;
17197;SDS011;8715;51.010;6.812;2024-03-02T12:51:52;889.33;;;830.15;;
17197;SDS011;8715;51.010;6.812;2024-03-02T12:54:39;886.65;;;827.70;;
17197;SDS011;8715;51.010;6.812;2024-03-02T12:57:25;889.05;;;829.83;;
17197;SDS011;8715;51.010;6.812;2024-03-02T13:00:10;891.67;;;831.90;;
17197;SDS011;8715;51.010;6.812;2024-03-02T13:02:56;886.92;;;827.65;;
17197;SDS011;8715;51.010;6.812;2024-03-02T13:05:48;889.97;;;830.10;;
17197;SDS011;8715;51.010;6.812;2024-03-02T13:08:33;890.30;;;830.72;;
17197;SDS011;8715;51.010;6.812;2024-03-02T13:11:20;889.10;;;829.45;;
17197;SDS011;8715;51.010;6.812;2024-03-02T13:14:05;891.58;;;832.25;;
17197;SDS011;8715;51.010;6.812;2024-03-02T13:16:51;893.00;;;833.20;;
17197;SDS011;8715;51.010;6.812;2024-03-02T13:19:36;890.80;;;831.42;;
17197;SDS011;8715;51.010;6.812;2024-03-02T13:22:21;888.20;;;829.03;;
17197;SDS011;8715;51.010;6.812;2024-03-02T13:25:07;893.83;;;834.28;;
17197;SDS011;8715;51.010;6.812;2024-03-02T13:27:56;889.00;;;829.50;;
17197;SDS011;8715;51.010;6.812;2024-03-02T13:30:40;894.25;;;834.53;;
17197;SDS011;8715;51.010;6.812;2024-03-02T13:33:25;889.70;;;830.10;;
17197;SDS011;8715;51.010;6.812;2024-03-02T13:36:10;888.72;;;829.83;;
17197;SDS011;8715;51.010;6.812;2024-03-02T13:38:55;888.15;;;829.10;;
17197;SDS011;8715;51.010;6.812;2024-03-02T13:41:42;878.97;;;821.03;;
17197;SDS011;8715;51.010;6.812;2024-03-02T13:44:37;885.28;;;826.80;;
17197;SDS011;8715;51.010;6.812;2024-03-02T13:47:22;889.63;;;830.70;;
17197;SDS011;8715;51.010;6.812;2024-03-02T13:50:07;889.85;;;830.92;;
17197;SDS011;8715;51.010;6.812;2024-03-02T13:52:52;888.50;;;829.72;;
17197;SDS011;8715;51.010;6.812;2024-03-02T13:55:37;888.67;;;830.03;;
17197;SDS011;8715;51.010;6.812;2024-03-02T13:58:22;892.42;;;833.65;;
17197;SDS011;8715;51.010;6.812;2024-03-02T14:01:09;893.83;;;834.67;;
17197;SDS011;8715;51.010;6.812;2024-03-02T14:03:54;895.38;;;835.22;;
17197;SDS011;8715;51.010;6.812;2024-03-02T14:06:40;894.70;;;834.67;;
17197;SDS011;8715;51.010;6.812;2024-03-02T14:09:27;907.22;;;846.17;;
17197;SDS011;8715;51.010;6.812;2024-03-02T14:12:12;901.47;;;841.28;;
17197;SDS011;8715;51.010;6.812;2024-03-02T14:14:58;890.38;;;830.92;;
17197;SDS011;8715;51.010;6.812;2024-03-02T14:17:47;897.15;;;836.97;;
17197;SDS011;8715;51.010;6.812;2024-03-02T14:20:32;896.30;;;835.90;;
17197;SDS011;8715;51.010;6.812;2024-03-02T14:23:17;899.17;;;838.55;;
17197;SDS011;8715;51.010;6.812;2024-03-02T14:26:03;899.35;;;838.50;;
17197;SDS011;8715;51.010;6.812;2024-03-02T14:28:48;897.92;;;836.85;;
17197;SDS011;8715;51.010;6.812;2024-03-02T14:31:33;903.50;;;842.10;;
17197;SDS011;8715;51.010;6.812;2024-03-02T14:34:19;901.05;;;839.50;;
17197;SDS011;8715;51.010;6.812;2024-03-02T14:37:05;904.42;;;842.70;;
17197;SDS011;8715;51.010;6.812;2024-03-02T14:39:50;902.58;;;841.22;;
17197;SDS011;8715;51.010;6.812;2024-03-02T14:42:35;908.42;;;846.20;;
17197;SDS011;8715;51.010;6.812;2024-03-02T14:45:20;898.17;;;837.28;;
17197;SDS011;8715;51.010;6.812;2024-03-02T14:48:07;903.70;;;842.05;;
17197;SDS011;8715;51.010;6.812;2024-03-02T14:50:54;897.95;;;836.90;;
17197;SDS011;8715;51.010;6.812;2024-03-02T14:53:39;903.75;;;841.90;;
17197;SDS011;8715;51.010;6.812;2024-03-02T14:56:24;900.95;;;839.50;;
17197;SDS011;8715;51.010;6.812;2024-03-02T14:59:09;900.60;;;839.20;;
17197;SDS011;8715;51.010;6.812;2024-03-02T15:01:55;900.83;;;839.35;;
17197;SDS011;8715;51.010;6.812;2024-03-02T15:04:40;902.08;;;840.67;;
17197;SDS011;8715;51.010;6.812;2024-03-02T15:07:27;898.40;;;837.75;;
17197;SDS011;8715;51.010;6.812;2024-03-02T15:10:12;899.38;;;838.10;;
17197;SDS011;8715;51.010;6.812;2024-03-02T15:12:57;898.17;;;837.15;;
17197;SDS011;8715;51.010;6.812;2024-03-02T15:15:42;903.63;;;842.15;;
17197;SDS011;8715;51.010;6.812;2024-03-02T15:18:28;901.15;;;839.92;;
17197;SDS011;8715;51.010;6.812;2024-03-02T15:21:13;898.20;;;837.08;;
17197;SDS011;8715;51.010;6.812;2024-03-02T15:23:59;901.53;;;839.90;;
17197;SDS011;8715;51.010;6.812;2024-03-02T15:26:44;909.08;;;846.92;;
17197;SDS011;8715;51.010;6.812;2024-03-02T15:29:29;904.28;;;842.70;;
17197;SDS011;8715;51.010;6.812;2024-03-02T15:32:15;902.97;;;841.72;;
17197;SDS011;8715;51.010;6.812;2024-03-02T15:35:00;898.65;;;837.40;;
17197;SDS011;8715;51.010;6.812;2024-03-02T15:37:45;899.72;;;838.42;;
17197;SDS011;8715;51.010;6.812;2024-03-02T15:40:32;898.38;;;837.83;;
17197;SDS011;8715;51.010;6.812;2024-03-02T15:43:16;903.55;;;842.70;;
17197;SDS011;8715;51.010;6.812;2024-03-02T15:46:01;898.25;;;837.70;;
17197;SDS011;8715;51.010;6.812;2024-03-02T15:48:47;894.28;;;834.10;;
17197;SDS011;8715;51.010;6.812;2024-03-02T15:51:32;898.53;;;838.05;;
17197;SDS011;8715;51.010;6.812;2024-03-02T15:54:20;895.13;;;835.30;;
17197;SDS011;8715;51.010;6.812;2024-03-02T15:57:06;894.13;;;834.17;;
17197;SDS011;8715;51.010;6.812;2024-03-02T15:59:51;894.78;;;834.83;;